Date,TemperatureHighF,TemperatureAvgF,TemperatureLowF,DewpointHighF,DewpointAvgF,DewpointLowF,HumidityHigh,HumidityAvg,HumidityLow,PressureMaxIn,PressureMinIn,WindSpeedMaxMPH,WindSpeedAvgMPH,GustSpeedMaxMPH,PrecipitationSumIn
2013-1-1,14.3,8.7,3.9,7.4,2.8,-0.5,97,77,53,30.18,30.07,14,8,18,0.00
2013-1-2,20.8,16.4,11.1,20.0,10.3,2.1,98,76,53,30.09,29.98,16,9,21,0.00
2013-1-3,24.3,19.5,8.9,23.5,18.9,7.2,99,96,85,30.17,29.99,17,11,22,0.00
2013-1-4,28.1,18.8,8.4,21.8,15.8,7.2,99,88,67,30.13,30.02,21,13,27,0.00
2013-1-5,34.2,26.5,17.0,34.4,26.4,17.1,99,98,90,30.15,29.81,19,12,28,0.00
2013-1-6,33.5,22.9,14.7,33.7,21.6,14.9,99,94,83,30.22,29.82,20,12,27,0.00
2013-1-7,34.6,24.9,13.6,28.9,21.2,13.7,99,85,66,30.21,29.97,28,15,38,0.00
2013-1-8,37.4,32.0,24.3,35.6,30.5,24.4,99,93,82,30.03,29.88,23,14,33,0.00
2013-1-9,39.0,34.7,28.3,35.1,26.9,21.9,99,74,50,30.41,29.86,30,15,40,0.00
2013-1-10,38.1,31.3,23.5,35.9,28.9,22.3,99,90,74,30.43,29.81,19,11,25,0.15
2013-1-11,47.6,39.9,34.5,47.8,40.1,34.6,100,99,99,29.81,29.54,24,12,35,0.19
2013-1-12,47.7,32.2,20.1,47.4,29.1,15.7,100,87,67,29.96,29.55,33,17,42,0.00
2013-1-13,20.7,15.2,11.1,18.2,9.7,4.3,89,78,66,30.14,29.85,19,12,26,0.00
2013-1-14,23.5,14.7,6.5,10.9,7.1,2.5,95,72,48,30.37,30.14,16,9,21,0.00
2013-1-15,27.1,19.7,13.6,14.2,11.8,10.1,90,71,49,30.34,30.01,17,11,21,0.00
2013-1-16,34.2,26.1,17.3,34.3,21.5,9.3,99,82,63,30.01,29.71,26,14,34,0.00
2013-1-17,27.9,20.6,16.0,24.1,8.5,1.3,85,59,42,30.33,30.01,20,11,24,0.00
2013-1-18,41.3,22.7,15.3,33.6,17.9,9.8,94,81,67,30.34,29.77,33,12,38,0.00
2013-1-20,8.9,8.9,8.8,-2.4,-2.5,-2.7,58,58,58,30.12,30.12,12,12,16,0.00
2013-1-21,2.3,1.3,-0.6,-11.3,-12.4,-13.0,59,51,48,30.14,30.10,20,17,24,0.00
2013-1-22,6.2,4.2,-4.9,-5.4,-8.0,-12.9,67,55,50,30.28,30.22,15,9,18,0.00
2013-1-23,16.9,10.3,3.1,16.9,4.3,-6.6,99,76,53,30.35,30.00,31,13,39,0.00
2013-1-24,15.7,5.6,-1.3,9.4,-2.2,-7.1,77,69,57,30.57,30.25,24,9,29,0.00
2013-1-25,24.4,18.0,13.1,21.6,12.9,4.4,99,80,56,30.25,29.86,21,14,29,0.00
2013-1-26,22.6,15.6,8.1,13.1,7.6,5.0,89,70,49,30.33,30.14,15,8,21,0.00
2013-1-27,32.6,27.0,21.4,32.7,23.1,12.4,99,85,65,30.25,29.78,21,11,29,0.02
2013-1-28,39.2,35.4,32.7,38.9,35.4,32.8,99,99,94,29.89,29.70,18,8,24,0.13
2013-1-29,53.8,42.0,33.4,53.9,42.1,33.5,100,99,99,29.72,29.44,22,14,30,1.17
2013-1-30,33.6,25.8,14.3,33.7,25.6,11.4,99,98,86,29.57,29.28,24,17,35,0.25
2013-1-31,14.4,8.2,-0.2,12.4,4.4,-3.9,99,83,66,30.08,29.57,22,16,28,0.00
2013-2-1,4.5,-1.5,-7.8,4.7,-6.4,-12.5,99,79,63,30.24,30.03,18,11,25,0.00
2013-2-2,10.1,6.7,4.2,7.6,3.6,0.4,99,86,69,30.04,29.93,14,7,18,0.00
2013-2-3,18.4,12.6,6.3,15.3,9.5,6.4,99,87,62,29.97,29.86,20,9,27,0.00
2013-2-4,15.3,13.2,10.8,15.4,9.9,4.7,99,86,66,29.93,29.85,14,8,17,0.00
2013-2-5,28.2,18.7,8.8,27.2,17.0,3.3,99,92,75,30.04,29.71,19,12,26,0.00
2013-2-6,33.1,23.2,14.2,33.1,21.6,14.3,99,92,78,30.15,29.99,20,9,24,0.00
2013-2-7,33.9,30.2,21.2,34.1,30.3,21.3,99,99,99,30.03,29.86,23,10,29,0.15
2013-2-8,24.5,20.0,13.6,99.9,17.6,10.8,99,87,51,30.32,30.03,22,11,28,0.00
2013-2-9,27.8,21.8,12.7,24.3,19.1,10.7,94,88,79,30.32,30.00,23,13,28,0.00
2013-2-10,41.8,33.4,23.2,41.3,32.2,22.0,99,94,77,30.00,29.33,29,17,42,0.43
2013-2-11,36.9,28.9,22.6,31.8,22.4,16.0,88,76,65,29.94,29.33,36,22,51,0.03
2013-2-12,28.5,23.2,19.5,21.3,15.9,11.5,85,72,64,30.02,29.80,20,12,26,0.00
2013-2-13,35.5,30.0,23.5,28.4,23.5,20.8,89,76,61,29.80,29.62,17,9,18,0.00
2013-2-14,34.8,32.3,25.9,32.3,24.2,17.0,93,72,53,29.95,29.51,27,14,36,0.01
2013-2-15,25.8,18.5,11.3,18.9,4.7,-0.7,76,54,37,30.15,29.95,22,12,27,0.00
2013-2-16,15.1,11.5,8.1,3.2,-2.2,-5.4,71,53,40,30.14,30.07,14,9,19,0.00
2013-2-17,26.2,16.8,7.1,17.2,4.9,-2.9,78,59,47,30.12,29.84,23,9,29,0.00
2013-2-18,44.3,32.5,20.5,37.1,25.3,15.3,98,74,64,29.84,29.42,27,17,35,0.05
2013-2-19,20.3,11.0,7.2,15.3,1.6,-6.4,84,65,51,30.13,29.51,27,20,36,0.05
2013-2-20,20.7,12.5,4.3,6.6,0.6,-6.3,66,58,50,30.31,30.13,17,11,24,0.00
2013-2-21,25.0,17.3,10.1,23.1,12.2,3.2,95,80,58,30.36,29.96,24,12,33,0.00
2013-2-22,28.0,25.6,23.1,24.0,22.3,19.6,94,86,73,29.96,29.73,21,9,28,0.00
2013-2-23,27.0,23.8,21.2,20.6,16.8,15.0,83,73,60,29.88,29.79,18,12,23,0.00
2013-2-24,35.3,26.6,18.8,19.7,16.8,14.1,81,66,50,30.08,29.88,15,8,19,0.02
2013-2-25,38.4,30.4,21.3,25.3,21.1,16.7,85,68,54,30.10,29.97,11,6,0,0.00
2013-2-26,31.9,29.9,27.4,28.3,24.9,22.4,95,81,68,29.97,29.59,34,20,46,0.00
2013-2-27,31.5,29.3,26.8,29.9,27.4,24.4,96,92,84,29.75,29.58,22,16,29,0.00
2013-2-28,32.1,29.6,23.3,29.1,23.8,15.6,94,78,65,30.08,29.75,21,15,27,0.00
2013-3-1,24.3,22.3,18.6,18.2,14.9,11.2,88,72,61,30.19,30.08,18,10,25,0.00
2013-3-2,26.0,18.4,11.2,11.2,7.4,4.5,75,62,41,30.19,30.10,15,8,18,0.00
2013-3-3,26.7,19.7,12.4,7.5,4.6,1.0,66,51,39,30.11,30.02,10,6,0,0.00
2013-3-4,30.8,23.0,15.3,23.0,13.8,2.0,81,67,50,30.06,29.95,18,11,23,0.00
2013-3-5,28.6,26.7,24.4,26.4,23.8,20.9,95,88,79,30.05,29.83,21,12,28,0.00
2013-3-6,30.4,26.7,23.2,22.4,20.6,17.5,85,77,65,30.26,30.05,18,12,24,0.00
2013-3-7,32.5,25.3,17.6,19.8,15.7,12.7,82,66,52,30.36,30.26,14,6,0,0.00
2013-3-8,35.7,27.0,16.1,24.2,21.0,14.7,95,78,60,30.39,30.21,18,10,23,0.00
2013-3-9,38.2,34.4,28.9,36.4,29.5,22.2,97,81,68,30.21,29.74,25,16,31,0.29
2013-3-10,40.4,37.2,33.6,40.0,37.0,33.6,99,98,93,29.76,29.58,22,11,31,0.93
2013-3-11,33.5,31.2,28.6,33.5,29.8,23.0,99,94,78,29.72,29.51,19,10,25,0.13
2013-3-12,29.6,26.4,22.8,24.9,20.5,14.0,92,78,60,29.97,29.72,21,13,28,0.00
2013-3-13,30.6,23.9,17.9,18.0,7.6,-0.7,79,52,26,30.25,29.97,20,13,26,0.00
2013-3-14,32.3,26.0,19.7,27.1,18.2,8.4,92,72,48,30.25,30.00,15,8,20,0.01
2013-3-15,33.6,30.9,27.8,32.0,28.6,23.8,95,90,78,30.00,29.75,18,8,23,0.15
2013-3-16,29.4,24.7,19.4,24.4,18.4,14.9,93,76,59,30.09,29.75,18,11,24,0.01
2013-3-17,29.8,22.8,15.9,18.2,11.7,4.1,77,61,52,30.20,29.94,22,12,27,0.00
2013-3-18,31.3,25.4,16.5,28.9,21.0,7.7,96,82,61,29.94,29.52,32,13,38,0.03
2013-3-19,29.3,18.3,10.1,8.7,4.7,2.0,72,56,30,30.00,29.67,30,19,40,0.00
2013-3-20,18.1,13.5,7.3,3.6,-0.7,-5.3,56,52,45,30.03,29.96,23,15,30,0.00
2013-3-21,26.6,18.5,9.9,8.9,4.1,-0.7,66,52,44,30.00,29.94,16,9,20,0.00
2013-3-22,31.6,23.6,16.5,12.8,8.6,5.3,60,52,40,30.02,29.97,12,7,0,0.01
2013-3-23,34.6,29.1,23.0,19.7,15.4,12.3,74,56,43,30.08,30.00,11,5,0,0.00
2013-3-24,30.0,28.3,26.7,26.3,22.7,19.2,93,79,66,30.02,29.74,25,15,32,0.00
2013-3-25,33.4,29.1,23.5,22.6,20.0,16.5,79,68,61,30.05,29.78,22,14,28,0.00
2013-3-26,38.4,33.2,29.2,25.1,20.8,16.3,70,59,45,30.21,30.05,15,9,19,0.00
2013-3-27,39.6,35.6,32.2,22.9,18.1,13.2,65,49,36,30.28,30.21,15,8,19,0.00
2013-3-28,43.9,37.0,29.8,20.2,16.2,12.7,56,42,31,30.31,30.24,13,6,16,0.00
2013-3-29,47.2,40.4,33.6,22.1,17.8,12.8,56,40,25,30.28,30.17,12,6,0,0.00
2013-3-30,50.3,42.5,35.0,41.7,30.5,20.1,94,62,46,30.18,29.78,26,14,35,0.01
2013-3-31,44.7,38.9,31.9,41.8,30.9,16.0,96,73,48,29.88,29.69,26,14,36,0.01
2013-4-1,33.6,28.9,24.6,15.8,9.9,4.7,56,44,29,30.15,29.88,20,14,27,0.00
2013-4-2,36.9,29.8,24.2,13.9,10.4,4.7,62,45,25,30.28,30.14,17,12,23,0.00
2013-4-3,42.2,33.6,26.7,18.2,11.5,2.3,57,40,21,30.40,30.22,13,7,0,0.00
2013-4-4,55.6,42.4,31.3,32.0,23.4,16.2,57,47,34,30.22,29.92,25,15,30,0.00
2013-4-5,46.8,38.5,32.3,27.0,21.4,17.0,63,50,31,30.21,30.01,21,9,28,0.00
2013-4-6,60.8,46.5,33.1,49.0,32.3,16.4,89,58,40,30.07,29.52,28,17,36,0.01
2013-4-7,52.9,43.2,36.3,45.0,33.3,29.5,83,68,48,29.92,29.55,25,12,36,0.00
2013-4-8,56.0,44.0,36.4,47.2,39.8,30.9,98,84,72,29.95,29.57,19,11,24,0.42
2013-4-9,41.2,38.1,36.0,40.9,37.5,34.1,99,97,90,29.97,29.82,27,13,39,1.01
2013-4-10,36.6,33.8,31.1,35.4,32.4,29.3,97,93,88,30.02,29.84,26,14,36,0.79
2013-4-11,37.7,36.0,34.4,37.1,35.2,33.3,98,96,90,29.87,29.53,34,15,46,0.42
2013-4-12,38.8,34.9,33.0,34.8,31.0,25.3,99,85,68,29.76,29.48,20,9,25,0.06
2013-4-13,36.5,34.1,31.5,27.3,24.0,20.4,83,66,55,29.95,29.74,22,12,28,0.00
2013-4-14,51.8,38.3,30.1,44.0,32.1,20.1,95,78,54,29.95,29.51,29,14,35,0.05
2013-4-15,58.6,47.3,40.4,49.0,40.1,29.2,99,78,33,29.93,29.55,32,14,42,0.49
2013-4-16,50.1,41.8,34.1,33.7,29.2,26.6,77,61,41,30.25,29.93,16,10,22,0.00
2013-4-17,43.5,40.2,37.6,41.2,35.5,29.8,98,83,60,30.27,29.79,26,12,36,0.46
2013-4-18,58.5,44.8,36.4,58.6,43.6,30.5,100,95,76,29.85,29.29,35,14,48,0.75
2013-4-19,37.2,34.3,31.2,30.8,25.0,19.4,87,68,51,29.87,29.33,31,21,40,0.00
2013-4-20,42.0,34.1,27.3,19.9,13.7,8.0,69,45,25,30.33,29.88,22,9,28,0.00
2013-4-21,51.1,40.6,31.9,33.3,25.5,19.6,70,55,37,30.44,30.21,26,17,36,0.00
2013-4-22,64.4,52.8,43.0,38.0,34.3,31.2,64,50,31,30.22,29.96,22,14,29,0.00
2013-4-23,56.6,42.6,36.7,46.0,34.2,25.7,88,71,49,29.97,29.86,24,14,35,0.00
2013-4-24,50.8,41.3,33.3,26.8,21.4,14.8,67,46,25,30.00,29.93,22,11,34,0.00
2013-4-25,48.6,42.7,36.1,34.2,27.7,21.9,86,56,34,30.24,29.93,21,12,32,0.01
2013-4-26,67.1,53.6,40.5,44.1,33.5,20.8,67,46,36,30.24,30.09,34,19,42,0.00
2013-4-27,62.3,55.6,45.8,46.0,43.4,41.1,91,64,46,30.20,29.98,18,9,23,0.00
2013-4-28,68.8,58.5,46.8,48.0,41.7,37.1,78,54,35,29.98,29.77,13,5,0,0.00
2013-4-29,69.1,61.4,53.5,56.2,50.6,47.1,81,67,50,29.83,29.68,22,14,28,0.00
2013-4-30,85.0,72.6,59.7,58.1,50.9,41.1,90,52,21,29.87,29.65,35,20,43,0.02
2013-5-1,77.0,64.2,50.4,53.3,46.9,40.1,70,53,39,30.19,29.87,28,11,35,0.00
2013-5-2,50.7,43.9,36.1,40.5,36.0,32.7,91,73,60,30.27,30.18,25,17,32,0.02
2013-5-3,46.3,39.5,34.5,46.0,38.3,32.6,98,94,90,30.18,29.97,22,13,26,0.49
2013-5-4,68.9,56.3,46.0,52.4,46.5,43.0,97,72,41,30.03,29.94,19,9,24,0.12
2013-5-5,70.8,61.5,49.5,46.8,43.1,38.4,83,52,31,30.05,29.98,14,7,19,0.00
2013-5-6,71.3,63.0,53.1,42.9,39.2,34.1,63,43,25,30.06,29.98,11,6,0,0.00
2013-5-7,75.8,67.2,59.3,48.3,37.4,31.1,56,35,19,30.05,29.97,12,4,0,0.00
2013-5-8,78.4,68.3,55.6,50.4,42.3,35.7,66,41,23,30.02,29.94,11,6,0,0.00
2013-5-9,67.2,60.0,47.0,57.1,51.3,45.7,96,74,47,29.94,29.83,23,9,31,0.49
2013-5-10,52.0,45.1,40.4,46.5,42.2,38.6,96,89,72,29.97,29.85,22,12,29,0.89
2013-5-11,51.8,47.3,41.8,47.5,33.8,18.7,94,62,28,30.02,29.78,31,19,44,0.01
2013-5-12,52.1,44.1,36.8,27.5,21.2,16.4,60,41,24,30.09,30.02,25,14,33,0.00
2013-5-13,62.8,50.7,37.0,37.6,28.2,19.8,90,47,19,30.14,29.87,18,8,22,0.00
2013-5-14,87.9,71.4,52.9,57.8,44.8,36.2,59,40,19,29.87,29.55,28,14,48,0.01
2013-5-15,79.4,71.0,64.7,57.3,41.7,33.6,51,35,23,29.85,29.55,25,12,32,0.01
2013-5-16,82.3,69.5,60.0,48.6,42.2,36.0,51,37,24,29.95,29.84,21,9,27,0.00
2013-5-17,62.6,57.0,47.9,51.6,44.1,30.1,92,63,33,30.07,29.94,19,10,24,0.61
2013-5-18,77.9,65.8,53.1,63.2,55.3,44.8,85,69,50,30.04,29.91,15,8,19,0.00
2013-5-19,83.7,71.6,62.2,63.8,60.0,52.2,88,68,43,29.93,29.63,46,15,63,0.13
2013-5-20,79.8,71.1,62.2,63.0,58.8,55.4,97,66,45,29.78,29.58,28,15,39,0.60
2013-5-21,73.3,68.3,61.9,59.7,56.6,53.8,89,67,52,29.68,29.59,26,14,34,0.00
2013-5-22,67.7,62.8,54.7,59.5,56.8,54.1,97,80,65,29.76,29.60,18,8,23,0.11
2013-5-23,59.2,52.8,47.2,54.1,43.0,32.3,97,71,37,30.28,29.76,25,14,32,0.03
2013-5-24,61.8,51.1,41.7,43.8,35.6,31.0,86,57,32,30.43,30.27,14,6,19,0.00
2013-5-25,58.5,52.4,46.6,43.0,37.0,31.0,76,56,42,30.36,30.26,18,8,22,0.00
2013-5-26,63.9,54.9,46.7,50.3,40.6,31.5,79,59,39,30.28,30.13,19,12,24,0.00
2013-5-27,55.0,52.6,50.4,52.8,49.1,39.5,99,88,58,30.13,29.86,23,13,26,0.01
2013-5-28,70.4,60.5,50.6,66.0,58.6,50.7,100,93,75,29.86,29.69,13,6,17,0.87
2013-5-29,80.8,69.9,61.6,66.6,62.7,56.4,100,79,59,29.89,29.75,24,10,32,0.43
2013-5-30,80.3,71.0,61.6,66.5,63.5,58.8,97,78,54,29.87,29.68,37,18,60,0.74
2013-5-31,72.5,66.1,61.7,64.3,60.5,56.6,94,82,59,29.76,29.66,27,16,35,0.35
2013-6-1,74.6,67.5,62.1,64.4,59.2,51.5,99,76,47,29.69,29.60,26,12,32,0.00
2013-6-2,62.2,53.5,45.6,55.9,42.2,37.2,87,66,47,30.01,29.69,24,12,32,0.00
2013-6-3,66.9,58.3,48.4,44.5,38.0,27.9,73,48,26,30.08,29.99,10,4,0,0.00
2013-6-4,66.5,59.9,52.6,48.7,44.3,39.4,82,57,38,30.15,30.05,19,9,24,0.02
2013-6-5,64.7,56.8,51.3,59.4,51.3,46.9,92,81,65,30.12,29.91,20,9,24,0.15
2013-6-6,58.5,55.0,51.1,54.3,51.5,48.6,96,87,77,29.94,29.90,14,7,17,0.12
2013-6-7,68.0,58.7,52.4,50.9,48.0,44.0,84,68,43,29.98,29.90,10,6,0,0.00
2013-6-8,70.1,63.5,56.5,50.1,44.4,38.8,73,49,37,29.98,29.91,15,7,23,0.00
2013-6-9,77.2,67.0,57.5,64.2,54.1,46.4,95,64,44,29.99,29.77,26,13,36,0.35
2013-6-10,77.5,69.6,61.3,63.7,60.8,59.2,96,74,54,29.85,29.76,13,6,0,0.35
2013-6-11,81.1,73.3,63.8,65.4,60.7,58.5,83,65,47,29.91,29.77,18,7,22,0.00
2013-6-12,76.3,70.2,61.8,67.9,64.5,60.1,97,82,69,29.90,29.61,29,10,35,0.54
2013-6-13,75.2,67.8,60.2,60.0,54.7,50.3,93,64,42,30.04,29.74,18,10,23,0.53
2013-6-14,75.3,66.5,57.9,59.5,53.8,49.7,82,64,44,30.14,29.98,17,7,21,0.00
2013-6-15,80.7,69.3,58.0,68.2,60.8,50.1,97,74,57,30.05,29.80,17,11,22,0.10
2013-6-16,81.8,74.8,67.3,68.2,55.5,44.2,94,56,26,29.91,29.84,15,10,22,0.01
2013-6-17,83.3,74.4,64.3,58.6,52.3,46.9,76,46,31,29.95,29.86,20,11,31,0.00
2013-6-18,70.1,62.6,55.6,57.4,50.5,42.6,82,65,39,30.08,29.95,17,10,20,0.00
2013-6-19,77.6,66.8,56.3,55.9,46.8,37.0,66,49,33,30.14,30.04,15,6,20,0.00
2013-6-20,85.0,73.1,59.7,64.4,51.5,43.1,67,47,28,30.13,30.02,16,11,23,0.00
2013-6-21,77.0,71.2,65.4,68.3,62.8,59.6,96,75,59,30.10,29.83,31,11,38,0.45
2013-6-22,80.1,70.7,65.7,72.5,66.3,63.4,96,86,67,30.10,29.90,27,12,33,0.66
2013-6-23,82.9,72.8,63.6,70.4,66.0,61.7,97,79,61,30.05,29.85,22,13,28,0.97
2013-6-24,78.7,71.9,68.3,67.2,65.6,62.6,94,80,62,30.01,29.82,22,10,32,0.00
2013-6-25,80.3,71.3,64.0,74.3,67.9,63.6,98,89,70,29.94,29.79,22,8,35,2.24
2013-6-26,80.1,74.1,64.3,74.4,67.4,61.1,99,80,62,29.82,29.69,40,8,58,2.22
2013-6-27,85.7,77.6,71.0,71.7,65.0,55.8,93,67,36,29.80,29.69,24,11,34,0.00
2013-6-28,74.9,69.4,64.8,64.5,59.5,55.5,96,71,52,29.74,29.63,24,12,33,0.05
2013-6-29,69.7,65.4,62.6,63.8,60.6,55.0,97,84,59,29.83,29.62,23,14,33,0.38
2013-6-30,74.5,67.1,58.8,57.9,51.2,44.4,82,57,36,30.04,29.83,22,13,27,0.00
2013-7-1,77.3,69.5,61.2,57.2,49.6,43.1,68,50,30,30.11,30.04,21,11,27,0.00
2013-7-2,72.2,66.3,59.6,53.8,48.5,34.4,76,54,25,30.12,30.05,18,8,23,0.00
2013-7-3,69.2,64.0,57.9,61.4,54.9,43.6,84,72,51,30.08,30.01,9,5,0,0.00
2013-7-4,80.4,71.1,60.0,61.5,57.0,51.1,95,63,37,30.07,30.00,14,9,20,0.00
2013-7-5,82.3,74.2,65.1,62.4,60.8,58.1,83,64,45,30.05,29.98,20,12,26,0.00
2013-7-6,83.1,74.2,66.4,65.2,61.6,59.6,79,65,47,30.03,29.94,17,11,20,0.00
2013-7-7,85.9,77.2,67.9,70.4,67.0,63.8,90,71,48,29.97,29.91,16,10,19,0.00
2013-7-8,86.3,77.3,70.4,73.7,70.4,67.8,96,79,60,29.98,29.90,19,10,24,0.28
2013-7-9,83.2,76.0,70.9,74.5,71.9,69.2,99,87,66,29.99,29.82,25,10,30,0.14
2013-7-10,78.3,73.2,69.3,73.7,60.3,51.3,86,65,44,30.01,29.84,24,12,30,0.00
2013-7-11,79.2,71.3,63.6,61.0,54.8,49.6,80,57,37,30.12,30.02,10,5,0,0.00
2013-7-12,80.7,71.9,63.7,55.6,50.6,45.7,68,47,31,30.16,30.07,15,8,19,0.00
2013-7-13,81.3,72.5,62.3,62.0,57.9,54.2,77,60,42,30.15,30.07,16,10,21,0.00
2013-7-14,84.7,76.3,67.8,70.4,64.4,59.3,82,67,49,30.22,30.14,15,8,19,0.00
2013-7-15,88.0,80.1,71.9,75.5,70.2,66.9,88,72,54,30.28,30.20,14,7,16,0.00
2013-7-16,89.0,81.7,74.5,74.4,72.2,69.2,92,74,54,30.28,30.23,14,9,16,0.00
2013-7-17,90.2,83.5,77.5,73.9,71.5,65.9,83,67,45,30.29,30.16,15,10,18,0.02
2013-7-18,90.3,83.9,76.6,72.3,70.5,66.6,84,64,46,30.18,29.90,20,13,26,0.00
2013-7-19,87.8,81.6,75.6,71.8,68.0,58.8,75,63,42,29.90,29.74,22,16,30,0.00
2013-7-20,81.3,74.3,66.2,66.5,60.4,57.6,82,62,46,29.96,29.83,16,9,22,0.00
2013-7-21,80.1,67.5,63.2,67.6,61.3,57.2,96,80,61,29.96,29.88,31,11,40,0.71
2013-7-22,83.1,71.9,62.8,71.5,64.2,57.1,98,77,56,29.88,29.67,33,10,41,0.22
2013-7-23,73.9,68.3,64.6,64.7,54.8,50.5,89,62,49,29.98,29.72,21,14,26,0.22
2013-7-24,70.8,64.6,58.4,56.2,50.4,45.9,89,61,42,30.08,29.98,12,6,17,0.00
2013-7-25,76.1,67.8,58.8,64.7,57.2,49.7,87,69,51,30.07,29.93,30,13,36,0.06
2013-7-26,75.0,67.3,63.2,66.1,60.1,50.2,97,79,43,29.95,29.83,19,10,27,0.12
2013-7-27,63.2,55.1,51.0,55.5,46.3,41.4,83,72,55,29.94,29.86,22,13,28,0.00
2013-7-28,64.0,57.3,51.5,51.1,48.7,44.2,92,73,55,30.01,29.83,18,12,23,0.02
2013-7-29,73.3,63.9,55.9,60.9,54.4,49.6,86,71,52,30.15,30.00,14,8,20,0.00
2013-7-30,70.4,64.2,56.9,64.0,59.2,55.9,95,84,64,30.16,30.07,14,8,18,0.00
2013-7-31,77.3,68.7,63.3,65.0,61.8,55.7,99,79,56,30.08,29.95,21,7,26,0.01
2013-8-1,75.8,69.5,63.4,61.7,54.6,46.6,84,61,39,30.00,29.89,17,11,25,0.00
2013-8-2,77.7,69.9,63.2,64.6,57.5,50.9,96,67,40,29.96,29.82,19,10,27,0.09
2013-8-3,74.7,68.2,61.6,54.9,51.1,45.1,77,55,34,30.13,29.96,15,7,21,0.00
2013-8-4,72.6,66.2,59.1,58.0,52.4,40.9,86,62,32,30.22,30.10,12,6,16,0.00
2013-8-5,69.7,63.7,58.2,64.4,58.6,54.5,96,83,67,30.10,29.85,21,11,26,0.02
2013-8-6,81.1,72.4,65.2,70.4,66.2,64.0,98,81,59,29.87,29.78,15,8,19,0.00
2013-8-7,75.9,72.5,67.8,71.6,64.3,59.0,94,75,57,29.97,29.74,20,10,27,0.00
2013-8-8,75.8,68.7,61.4,62.1,58.7,50.5,93,71,47,30.05,29.97,14,7,17,0.00
2013-8-9,77.2,69.7,63.1,61.4,56.0,50.6,78,62,41,30.06,29.97,18,10,23,0.00
2013-8-10,73.0,67.3,60.3,56.1,53.2,49.5,79,61,46,30.15,30.06,9,6,0,0.00
2013-8-11,73.8,66.9,60.7,67.1,59.4,52.0,95,76,59,30.13,30.02,12,6,19,0.08
2013-8-12,77.6,70.5,65.9,67.1,62.3,56.0,97,77,49,30.03,29.91,17,7,22,0.25
2013-8-13,68.2,62.3,55.0,57.5,47.8,43.4,85,59,42,30.15,29.97,16,10,21,0.00
2013-8-14,71.5,62.9,54.2,53.7,49.8,45.7,91,63,40,30.22,30.11,13,5,0,0.00
2013-8-15,74.5,67.1,59.0,53.8,50.1,43.0,75,55,33,30.14,30.08,14,7,18,0.00
2013-8-16,77.9,70.0,61.6,57.3,52.3,47.5,77,54,34,30.18,30.12,12,6,0,0.00
2013-8-17,78.3,70.6,61.8,61.1,53.5,47.3,86,55,34,30.24,30.15,11,6,0,0.00
2013-8-18,79.0,70.4,62.1,59.0,53.6,46.1,77,56,34,30.21,30.09,16,7,17,0.00
2013-8-19,79.6,72.2,62.3,61.0,57.6,54.2,80,60,44,30.09,30.02,18,10,22,0.00
2013-8-20,83.3,74.8,66.4,64.4,62.3,58.8,88,66,43,30.06,29.99,19,13,24,0.00
2013-8-21,86.4,77.9,69.4,69.4,66.2,64.0,83,67,49,30.01,29.91,27,14,34,0.00
2013-8-22,77.5,72.2,67.5,70.2,67.7,65.5,95,85,72,30.14,29.98,23,7,41,0.64
2013-8-23,79.4,71.6,65.2,66.7,56.9,53.8,89,60,42,30.18,30.11,14,8,18,0.00
2013-8-24,80.8,71.4,60.8,66.3,60.1,52.4,81,67,55,30.24,30.15,17,11,21,0.00
2013-8-25,86.2,77.5,68.5,68.8,65.2,61.7,83,66,48,30.18,30.08,23,16,29,0.00
2013-8-26,89.0,79.3,72.3,73.3,68.7,64.3,78,70,55,30.12,29.95,21,13,30,0.00
2013-8-27,92.1,83.0,75.7,73.4,70.5,68.2,81,66,49,29.96,29.80,23,14,31,0.00
2013-8-28,83.3,76.4,70.8,74.5,70.1,67.6,98,81,64,30.05,29.84,13,8,16,0.00
2013-8-29,85.2,76.4,68.2,69.0,66.2,61.3,95,72,49,30.08,29.96,15,9,19,0.00
2013-8-30,90.7,78.7,70.8,75.4,70.9,66.9,94,77,54,29.96,29.77,18,11,24,0.00
2013-8-31,78.1,71.6,66.1,68.4,64.2,61.1,90,77,62,29.88,29.78,18,7,23,0.00
2013-9-1,82.0,72.3,64.2,69.5,64.0,57.0,98,77,43,29.84,29.72,18,9,24,0.00
2013-9-2,68.6,64.2,59.6,60.2,55.1,50.6,89,72,55,30.00,29.83,18,10,22,0.00
2013-9-3,72.1,63.1,54.4,54.8,51.6,47.9,90,67,45,30.09,30.00,13,7,0,0.00
2013-9-4,77.6,66.3,60.6,59.2,54.3,52.5,75,65,52,30.11,30.02,14,10,18,0.00
2013-9-5,74.0,68.3,60.5,59.1,55.6,48.5,74,63,54,30.25,30.19,17,10,21,0.00
2013-9-6,83.9,70.4,57.1,63.7,56.8,47.3,74,62,48,30.21,29.97,17,10,21,0.00
2013-9-7,86.4,77.3,67.8,72.5,65.2,60.9,84,66,51,29.98,29.87,18,10,23,0.00
2013-9-8,72.7,67.5,61.7,68.0,63.1,58.1,91,85,81,30.06,29.94,21,11,29,0.00
2013-9-9,90.8,77.0,65.8,73.7,68.4,63.2,97,76,52,29.96,29.77,20,11,24,0.00
2013-9-10,93.4,83.9,76.2,67.4,60.8,56.7,61,46,29,29.94,29.81,28,18,39,0.04
2013-9-11,80.3,73.7,66.3,67.2,64.2,59.3,92,72,56,30.08,29.95,22,8,32,0.17
2013-9-12,71.6,66.7,58.7,63.0,53.0,46.5,81,61,44,30.13,29.97,25,14,30,0.00
2013-9-13,62.4,55.6,49.0,48.2,40.6,32.7,86,58,32,30.22,30.13,19,10,25,0.00
2013-9-14,68.7,58.7,48.5,45.3,42.8,39.5,83,57,35,30.15,29.96,16,10,20,0.00
2013-9-15,61.0,56.4,52.6,55.0,52.1,42.8,98,85,50,30.20,29.95,20,10,26,0.67
2013-9-16,62.8,53.7,44.5,51.2,43.3,38.2,84,68,46,30.38,30.21,19,10,27,0.00
2013-9-17,66.7,57.3,47.4,56.8,49.6,45.5,96,76,54,30.32,30.07,19,10,24,0.01
2013-9-18,73.2,65.7,59.1,66.8,59.8,53.2,93,80,70,30.07,29.86,23,13,29,0.01
2013-9-19,86.1,72.1,66.3,70.2,67.2,62.7,98,85,54,29.88,29.70,35,13,46,2.14
2013-9-20,67.5,63.9,57.6,66.4,58.3,49.7,98,82,61,29.83,29.72,21,13,27,0.17
2013-9-21,58.9,55.0,51.2,54.0,46.8,42.5,88,74,59,29.94,29.82,18,10,23,0.00
2013-9-22,63.0,53.8,46.2,47.9,43.5,39.4,86,68,48,30.06,29.94,16,6,20,0.00
2013-9-23,65.9,55.7,48.2,51.3,48.2,44.8,94,76,52,30.10,30.00,20,10,23,0.00
2013-9-24,69.6,59.0,51.3,51.9,49.7,46.0,95,73,44,30.02,29.93,16,9,20,0.00
2013-9-25,69.5,59.4,51.4,53.8,50.8,48.7,95,74,49,29.99,29.92,17,7,22,0.00
2013-9-26,74.8,61.8,50.2,57.8,52.1,46.6,99,73,37,30.06,29.97,14,8,20,0.00
2013-9-27,79.0,66.2,54.9,55.4,50.8,44.5,89,61,29,30.12,30.01,20,12,27,0.00
2013-9-28,78.6,64.4,54.9,66.0,53.7,46.2,95,69,50,30.02,29.81,32,16,41,0.05
2013-9-29,68.3,58.6,50.4,53.1,43.8,33.6,96,62,30,30.06,29.96,14,7,16,0.05
2013-9-30,71.6,60.6,49.3,48.7,42.8,38.5,77,53,31,29.98,29.79,24,14,29,0.00
2013-10-1,78.1,67.8,57.1,58.9,55.9,48.9,93,67,48,29.96,29.81,24,15,32,0.00
2013-10-2,74.8,66.0,57.0,53.5,45.4,32.0,86,50,23,30.10,29.96,16,7,20,0.00
2013-10-3,73.8,65.8,58.0,68.8,60.0,40.2,97,82,45,29.95,29.81,20,10,26,0.00
2013-10-4,68.2,65.6,61.1,67.1,64.4,61.0,99,95,86,29.99,29.85,17,7,25,0.18
2013-10-5,72.2,65.2,57.0,70.8,64.0,43.6,100,96,58,29.93,29.73,19,9,26,0.11
2013-10-6,56.7,49.9,44.8,45.0,39.7,34.9,91,68,48,29.76,29.65,18,9,23,0.02
2013-10-7,64.9,54.1,44.2,49.1,42.6,38.5,93,67,38,30.06,29.70,19,10,27,0.03
2013-10-8,73.7,61.7,50.7,46.8,43.0,39.6,72,52,29,30.12,30.05,22,12,28,0.00
2013-10-9,71.3,61.6,52.3,47.7,43.9,35.6,79,54,27,30.19,30.09,16,10,21,0.00
2013-10-10,72.0,60.3,51.2,53.5,48.0,42.9,87,65,36,30.14,30.01,15,8,18,0.00
2013-10-11,73.0,62.5,53.6,56.8,53.1,49.8,92,72,49,30.02,29.88,27,13,38,0.00
2013-10-12,66.6,61.3,54.7,58.9,47.8,33.4,90,63,36,30.13,29.87,23,14,31,0.02
2013-10-13,59.1,52.7,46.6,42.7,35.7,29.1,73,53,32,30.38,30.13,17,8,22,0.00
2013-10-14,60.1,51.5,43.6,46.2,42.0,37.9,88,70,47,30.39,30.08,23,9,29,0.00
2013-10-15,59.7,52.8,48.9,56.9,47.8,41.4,99,83,67,30.08,29.70,24,14,32,0.22
2013-10-16,52.0,48.5,46.5,47.5,45.5,42.4,97,89,77,29.91,29.75,18,11,27,0.03
2013-10-17,52.4,47.2,43.8,44.8,40.4,34.5,98,78,52,29.90,29.78,16,7,16,0.14
2013-10-18,46.2,44.4,42.0,41.3,36.5,33.2,89,73,64,29.91,29.76,22,12,26,0.00
2013-10-19,50.0,42.0,36.3,38.5,33.6,26.9,88,72,40,29.88,29.68,30,12,39,0.02
2013-10-20,49.1,42.4,33.4,46.0,38.5,32.7,97,85,65,29.81,29.66,19,11,26,0.10
2013-10-21,47.0,38.3,32.5,42.0,26.7,19.2,82,62,46,29.91,29.71,24,14,31,0.00
2013-10-22,43.2,36.0,28.5,28.4,24.6,20.9,75,62,46,29.93,29.87,19,9,25,0.00
2013-10-23,39.4,35.0,30.3,28.3,25.4,18.8,85,68,43,29.98,29.91,20,10,26,0.00
2013-10-24,41.0,35.4,31.2,27.9,23.2,20.5,78,61,44,30.25,29.98,19,12,24,0.00
2013-10-25,49.7,41.1,31.7,26.7,24.1,21.7,73,51,36,30.31,29.86,32,16,44,0.00
2013-10-26,47.5,45.0,40.8,34.9,27.5,23.4,66,50,38,30.03,29.75,32,17,44,0.00
2013-10-27,52.6,43.2,33.4,28.1,26.4,24.5,74,52,33,30.03,29.86,22,13,27,0.00
2013-10-28,45.0,39.9,37.1,33.2,29.7,26.3,83,66,50,30.37,30.00,24,13,29,0.00
2013-10-29,49.6,42.5,36.5,41.8,35.0,26.5,88,74,63,30.36,30.09,16,9,19,0.00
2013-10-30,56.8,49.6,44.7,55.8,48.6,41.2,100,96,84,30.09,29.71,24,9,28,0.00
2013-10-31,60.6,58.7,55.3,60.4,58.4,54.9,100,98,95,29.70,29.28,20,11,25,0.57
2013-11-1,45.1,43.7,41.1,41.5,39.5,36.7,88,84,79,29.72,29.50,15,10,20,0.02
2013-11-2,44.1,40.1,36.9,36.7,34.3,31.4,91,79,61,30.11,29.71,14,9,18,0.00
2013-11-3,48.5,40.8,33.3,36.7,32.9,28.0,98,74,46,30.25,30.11,22,10,29,0.00
2013-11-4,52.0,47.0,40.9,46.0,38.0,34.4,91,70,59,30.15,29.99,28,17,37,0.00
2013-11-5,52.0,49.7,46.8,51.2,47.0,43.5,99,90,75,30.22,29.81,25,11,37,0.19
2013-11-6,54.1,42.6,33.3,53.8,36.0,19.9,99,78,45,30.12,29.66,26,16,34,0.42
2013-11-7,39.1,34.5,30.2,29.3,25.6,21.6,81,69,57,30.20,30.12,17,11,23,0.00
2013-11-8,46.5,37.2,27.3,32.2,28.4,25.4,92,70,51,30.24,29.75,27,12,38,0.00
2013-11-9,51.0,46.0,38.2,38.4,33.3,22.8,76,61,46,30.06,29.71,36,20,48,0.00
2013-11-10,46.1,40.4,35.8,29.7,26.7,24.0,67,57,43,30.29,30.06,23,13,31,0.00
2013-11-11,44.1,32.5,23.0,34.0,22.7,11.7,97,67,55,30.51,30.01,26,16,33,0.03
2013-11-12,27.2,22.3,18.1,13.4,10.9,7.6,73,61,43,30.66,30.50,20,11,28,0.00
2013-11-13,40.1,29.4,18.0,16.5,12.0,8.6,72,49,29,30.50,30.01,29,17,39,0.00
2013-11-14,45.4,38.9,31.5,28.7,22.6,15.4,61,51,44,30.01,29.84,21,14,28,0.00
2013-11-15,53.1,45.6,38.7,35.0,32.1,27.9,82,59,49,29.89,29.83,16,11,23,0.00
2013-11-16,56.9,47.8,38.0,54.6,46.0,33.5,100,92,79,29.83,29.43,30,20,51,0.10
2013-11-17,57.1,49.4,38.5,54.8,46.2,31.1,100,88,70,29.64,29.13,34,17,45,0.65
2013-11-18,38.9,33.4,27.3,31.1,23.6,19.7,75,66,55,30.21,29.63,33,18,44,0.00
2013-11-19,38.6,30.9,24.7,27.5,21.9,18.5,82,69,50,30.30,30.18,18,9,24,0.00
2013-11-20,38.8,34.6,31.5,34.7,28.6,24.8,98,79,59,30.18,30.03,27,16,37,0.04
2013-11-21,41.2,38.3,35.1,37.5,36.3,34.1,98,91,83,30.22,30.05,19,8,26,0.01
2013-11-22,36.9,30.2,24.2,34.5,21.7,10.8,96,71,44,30.44,30.21,24,14,30,0.01
2013-11-23,24.1,16.8,12.1,15.4,3.8,-1.8,74,55,41,30.66,30.36,28,17,36,0.00
2013-11-24,24.9,17.1,8.4,5.6,1.1,-4.7,70,50,27,30.62,30.18,27,13,37,0.00
2013-11-25,30.1,25.3,20.6,24.7,18.0,4.8,91,74,43,30.18,29.95,27,18,36,0.00
2013-11-26,31.7,24.9,13.6,24.6,14.6,1.5,84,64,46,30.16,29.96,29,15,34,0.00
2013-11-27,23.9,17.6,11.2,9.8,6.6,2.0,77,61,44,30.21,30.13,20,11,28,0.00
2013-11-28,28.3,23.7,19.9,14.3,11.4,9.3,65,58,51,30.44,30.08,16,10,20,0.00
2013-11-29,29.1,24.3,17.6,19.8,15.1,12.3,81,67,54,30.55,30.27,18,8,24,0.00
2013-11-30,41.1,34.0,27.0,29.4,25.3,19.8,80,70,59,30.27,29.98,21,12,25,0.00
2013-12-1,37.9,34.0,29.9,29.3,25.5,23.2,85,70,56,30.10,29.92,12,7,0,0.00
2013-12-2,37.7,32.4,26.7,32.6,28.7,25.3,98,85,67,29.93,29.67,21,11,26,0.03
2013-12-3,38.9,35.9,32.8,38.8,36.0,32.6,100,100,98,29.70,29.62,16,10,22,0.07
2013-12-4,48.2,39.7,32.8,48.4,39.7,27.3,100,99,79,29.70,29.41,32,11,43,0.10
2013-12-5,33.3,20.0,12.5,27.6,10.6,4.0,83,66,52,30.22,29.58,25,16,35,0.00
2013-12-6,14.4,9.5,5.9,4.4,0.0,-1.7,74,64,50,30.48,30.19,18,12,24,0.00
2013-12-7,11.9,6.6,0.6,-1.1,-4.0,-7.7,75,61,40,30.61,30.48,17,9,20,0.00
2013-12-8,20.2,13.8,8.3,18.1,7.0,-8.0,93,74,46,30.53,29.89,12,8,18,0.00
2013-12-9,15.8,8.3,-3.3,13.6,1.3,-10.4,90,72,56,30.11,29.87,28,13,37,0.00
2013-12-10,16.4,7.2,-6.2,6.6,-1.8,-11.5,78,66,48,30.18,29.83,27,14,33,0.00
2013-12-11,13.9,6.0,-3.8,9.4,-3.9,-13.6,85,63,44,30.44,30.17,22,11,29,0.00
2013-12-12,15.8,7.5,-4.6,8.8,-1.7,-12.3,74,65,56,30.41,30.10,23,11,31,0.00
2013-12-13,22.5,17.5,13.1,16.6,11.4,7.9,80,76,67,30.14,30.07,18,9,24,0.00
2013-12-14,21.3,19.4,17.4,18.1,15.8,12.2,89,85,78,30.11,29.87,18,12,25,0.00
2013-12-15,18.5,9.8,3.7,13.0,-1.4,-10.0,78,59,46,30.06,29.86,25,14,31,0.00
2013-12-16,13.5,6.7,0.6,11.5,-0.6,-10.3,91,71,51,30.06,29.93,13,6,18,0.00
2013-12-17,32.8,23.7,13.0,23.0,16.5,8.9,93,74,51,30.01,29.84,22,15,31,0.03
2013-12-18,33.2,23.2,12.4,26.1,13.3,5.7,80,65,44,30.04,29.70,31,14,41,0.00
2013-12-19,33.2,27.4,21.3,27.1,23.2,17.0,96,83,71,29.92,29.72,18,10,20,0.00
2013-12-20,22.5,21.0,19.4,21.5,19.5,17.8,96,93,89,29.84,29.75,11,6,0,0.00
2013-12-21,25.3,23.5,21.6,24.8,22.7,20.6,97,96,95,29.83,29.66,3,1,0,0.00
2013-12-22,25.2,22.6,20.8,24.7,20.9,18.0,97,92,81,30.06,29.64,1,1,0,0.00
2013-12-23,21.7,8.8,-2.1,19.7,3.6,-9.0,92,78,69,30.35,30.06,3,2,0,0.00
2013-12-24,9.9,2.1,-6.6,5.8,-3.8,-12.1,84,75,67,30.45,30.20,7,3,0,0.00
2013-12-25,21.4,17.8,9.6,18.9,14.8,6.1,90,86,80,30.20,30.00,9,6,0,0.00
2013-12-26,26.7,20.1,11.7,22.1,15.1,6.8,83,80,76,30.16,30.03,11,4,0,0.00
2013-12-27,37.0,28.3,19.7,28.3,23.3,18.5,95,81,68,30.18,29.94,27,12,36,0.03
2013-12-28,41.1,35.7,28.7,30.6,28.5,25.3,86,74,65,29.99,29.68,26,16,32,0.07
2013-12-29,38.9,18.5,-3.4,30.0,11.5,-13.7,93,73,59,30.17,29.67,26,16,32,0.00
2013-12-30,2.9,-3.1,-8.5,-4.9,-13.1,-19.8,77,61,43,30.24,30.11,13,6,18,0.00
2013-12-31,6.1,2.1,-2.4,0.9,-4.1,-7.3,82,74,60,30.27,30.09,14,8,18,0.00
2014-1-1,6.3,2.7,-1.6,-2.7,-6.9,-13.1,71,62,55,30.29,30.22,18,12,21,0.00
2014-1-2,8.8,5.7,1.3,-0.4,-4.1,-10.0,76,63,51,30.35,30.18,19,13,23,0.00